createdAt,value
2018-06-16T00:01:57.230Z,97.71
2018-06-16T00:04:26.731Z,98.04
2018-06-16T00:06:55.780Z,97.91
2018-06-16T00:09:36.596Z,97.27
2018-06-16T00:14:58.955Z,96.27
2018-06-16T00:17:29.428Z,94.83
2018-06-16T00:19:58.741Z,95.13
2018-06-16T00:22:27.894Z,95.11
2018-06-16T00:25:00.934Z,96.71
2018-06-16T00:27:30.663Z,97.12
2018-06-16T00:29:59.633Z,96.59
2018-06-16T00:32:28.758Z,95.95
2018-06-16T00:34:57.719Z,96.23
2018-06-16T00:37:26.996Z,95.91
2018-06-16T00:39:56.135Z,96.00
2018-06-16T00:42:25.153Z,96.26
2018-06-16T00:44:54.307Z,96.19
2018-06-16T00:47:23.457Z,96.54
2018-06-16T00:49:52.554Z,95.78
2018-06-16T00:52:21.630Z,95.50
2018-06-16T00:54:50.766Z,95.00
2018-06-16T00:57:30.731Z,95.21
2018-06-16T00:59:59.681Z,96.81
2018-06-16T01:02:28.953Z,97.17
2018-06-16T01:04:58.266Z,98.24
2018-06-16T01:07:27.457Z,98.36
2018-06-16T01:09:56.552Z,98.24
2018-06-16T01:12:25.544Z,97.09
2018-06-16T01:14:54.756Z,97.69
2018-06-16T01:17:27.528Z,98.99
2018-06-16T01:19:58.153Z,99.26
2018-06-16T01:22:27.267Z,100.00
2018-06-16T01:24:56.348Z,100.00
2018-06-16T01:27:25.407Z,100.00
2018-06-16T01:29:54.631Z,99.44
2018-06-16T01:32:23.688Z,99.18
2018-06-16T01:34:52.816Z,99.50
2018-06-16T01:37:21.815Z,100.00
2018-06-16T01:39:50.987Z,99.46
2018-06-16T01:42:20.073Z,99.44
2018-06-16T01:44:49.100Z,99.61
2018-06-16T01:47:18.289Z,100.00
2018-06-16T01:49:47.339Z,99.49
2018-06-16T01:52:16.417Z,99.78
2018-06-16T01:54:45.399Z,98.99
2018-06-16T01:57:14.441Z,98.59
2018-06-16T01:59:43.451Z,98.25
2018-06-16T02:02:12.579Z,97.57
2018-06-16T02:04:41.773Z,98.52
2018-06-16T02:07:10.718Z,99.56
2018-06-16T02:09:39.710Z,98.98
2018-06-16T02:12:08.767Z,98.12
2018-06-16T02:14:37.834Z,98.99
2018-06-16T02:17:06.988Z,99.73
2018-06-16T02:19:36.097Z,99.13
2018-06-16T02:22:05.108Z,99.34
2018-06-16T02:24:34.165Z,99.13
2018-06-16T02:27:03.371Z,99.70
2018-06-16T02:29:32.476Z,99.59
2018-06-16T02:32:01.512Z,99.30
2018-06-16T02:34:30.573Z,99.18
2018-06-16T02:36:59.739Z,99.07
2018-06-16T02:39:28.853Z,98.83
2018-06-16T02:41:57.907Z,98.02
2018-06-16T02:44:26.916Z,98.07
2018-06-16T02:46:56.060Z,99.15
2018-06-16T02:49:25.135Z,98.50
2018-06-16T02:51:54.210Z,98.84
2018-06-16T02:54:23.516Z,98.71
2018-06-16T02:56:52.604Z,97.95
2018-06-16T02:59:21.675Z,99.13
2018-06-16T03:01:50.770Z,99.23
2018-06-16T03:04:19.862Z,98.46
2018-06-16T03:06:48.956Z,98.09
2018-06-16T03:09:18.566Z,98.08
2018-06-16T03:11:47.520Z,96.77
2018-06-16T03:14:16.689Z,96.85
2018-06-16T03:16:45.949Z,96.54
2018-06-16T03:19:14.961Z,95.71
2018-06-16T03:21:43.906Z,95.71
2018-06-16T03:24:13.062Z,93.95
2018-06-16T03:26:42.078Z,93.27
2018-06-16T03:29:11.159Z,93.23
2018-06-16T03:31:40.299Z,93.34
2018-06-16T03:34:09.368Z,94.06
2018-06-16T03:36:38.466Z,93.40
2018-06-16T03:39:08.552Z,92.39
2018-06-16T03:41:37.593Z,91.79
2018-06-16T03:44:06.613Z,91.15
2018-06-16T03:46:35.790Z,92.36
2018-06-16T03:49:04.740Z,90.20
2018-06-16T03:51:33.853Z,88.20
2018-06-16T03:54:02.957Z,87.39
2018-06-16T03:56:32.115Z,88.44
2018-06-16T03:59:01.211Z,87.85
2018-06-16T04:01:30.344Z,87.06
2018-06-16T04:03:59.263Z,86.84
2018-06-16T04:06:28.498Z,85.88
2018-06-16T04:08:57.457Z,86.40
2018-06-16T04:11:26.660Z,86.77
2018-06-16T04:13:55.616Z,86.59
2018-06-16T04:16:24.514Z,86.07
2018-06-16T04:18:53.618Z,86.55
2018-06-16T04:21:22.767Z,87.19
2018-06-16T04:23:51.898Z,86.42
2018-06-16T04:26:20.851Z,87.29
2018-06-16T04:28:49.844Z,87.67
2018-06-16T04:31:18.976Z,86.21
2018-06-16T04:33:48.028Z,85.40
2018-06-16T04:36:17.014Z,84.03
2018-06-16T04:38:46.154Z,85.39
2018-06-16T04:41:15.343Z,85.38
2018-06-16T04:43:44.406Z,84.58
2018-06-16T04:46:13.658Z,84.18
2018-06-16T04:48:42.811Z,82.15
2018-06-16T04:51:12.006Z,81.08
2018-06-16T04:53:41.015Z,78.89
2018-06-16T04:56:10.174Z,77.35
2018-06-16T04:58:39.120Z,76.85
2018-06-16T05:01:08.352Z,74.98
2018-06-16T05:03:37.485Z,75.33
2018-06-16T05:06:06.658Z,75.59
2018-06-16T05:08:35.822Z,75.68
2018-06-16T05:11:04.942Z,76.26
2018-06-16T05:13:34.509Z,76.64
2018-06-16T05:16:03.731Z,73.17
2018-06-16T05:18:32.766Z,71.22
2018-06-16T05:21:01.984Z,68.47
2018-06-16T05:23:31.090Z,65.45
2018-06-16T05:26:00.144Z,64.47
2018-06-16T05:28:29.259Z,63.15
2018-06-16T05:30:58.636Z,59.57
2018-06-16T05:33:27.678Z,57.95
2018-06-16T05:35:56.923Z,58.23
2018-06-16T05:38:25.972Z,58.38
2018-06-16T05:40:55.112Z,59.14
2018-06-16T05:43:24.283Z,60.49
2018-06-16T05:45:53.574Z,61.35
2018-06-16T05:48:22.712Z,60.92
2018-06-16T05:50:51.814Z,59.99
2018-06-16T05:53:21.007Z,57.59
2018-06-16T05:57:19.355Z,56.71
2018-06-16T05:59:48.617Z,56.07
2018-06-16T06:02:17.705Z,56.04
2018-06-16T06:04:46.646Z,55.35
2018-06-16T06:07:15.975Z,55.94
2018-06-16T06:09:46.270Z,55.03
2018-06-16T06:12:15.321Z,53.15
2018-06-16T06:14:44.364Z,52.12
2018-06-16T06:17:13.472Z,51.32
2018-06-16T06:19:42.612Z,50.84
2018-06-16T06:22:11.668Z,51.63
2018-06-16T06:24:40.824Z,51.58
2018-06-16T06:27:10.032Z,52.03
2018-06-16T06:29:39.040Z,52.97
2018-06-16T06:32:08.175Z,57.79
2018-06-16T06:34:37.157Z,58.11
2018-06-16T06:37:06.265Z,57.32
2018-06-16T06:39:35.286Z,57.51
2018-06-16T06:42:04.385Z,56.99
2018-06-16T06:44:33.490Z,61.48
2018-06-16T06:47:02.640Z,60.07
2018-06-16T06:49:32.047Z,60.07
2018-06-16T06:52:01.257Z,57.92
2018-06-16T06:54:30.629Z,59.45
2018-06-16T06:56:59.771Z,59.83
2018-06-16T06:59:28.806Z,58.60
2018-06-16T07:01:57.983Z,58.39
2018-06-16T07:04:27.132Z,59.74
2018-06-16T07:06:57.379Z,60.62
2018-06-16T07:09:26.584Z,60.20
2018-06-16T07:11:59.825Z,60.12
2018-06-16T07:14:28.904Z,59.22
2018-06-16T07:16:58.308Z,59.09
2018-06-16T07:19:27.341Z,58.96
2018-06-16T07:21:56.419Z,57.14
2018-06-16T07:24:25.403Z,58.66
2018-06-16T07:26:54.585Z,56.51
2018-06-16T07:29:23.798Z,56.18
2018-06-16T07:31:54.568Z,55.35
2018-06-16T07:34:23.623Z,54.40
2018-06-16T07:36:52.715Z,54.49
2018-06-16T07:39:21.840Z,57.18
2018-06-16T07:41:51.051Z,59.03
2018-06-16T07:44:20.040Z,58.10
2018-06-16T07:46:49.166Z,57.85
2018-06-16T07:49:18.319Z,58.01
2018-06-16T07:51:47.344Z,58.49
2018-06-16T07:54:16.405Z,58.66
2018-06-16T07:56:45.599Z,59.07
2018-06-16T07:59:14.565Z,59.74
2018-06-16T08:01:43.705Z,59.39
2018-06-16T08:04:12.778Z,57.32
2018-06-16T08:06:41.811Z,59.44
2018-06-16T08:09:11.731Z,58.66
2018-06-16T08:11:40.968Z,59.17
2018-06-16T08:14:09.972Z,57.71
2018-06-16T08:16:39.045Z,57.34
2018-06-16T08:19:08.261Z,57.28
2018-06-16T08:21:37.263Z,55.48
2018-06-16T08:24:06.373Z,55.61
2018-06-16T08:26:35.492Z,54.16
2018-06-16T08:29:04.493Z,53.63
2018-06-16T08:31:33.624Z,52.27
2018-06-16T08:34:02.819Z,52.46
2018-06-16T08:36:31.698Z,54.07
2018-06-16T08:39:01.713Z,55.67
2018-06-16T08:41:30.980Z,54.83
2018-06-16T08:44:00.284Z,53.81
2018-06-16T08:46:29.448Z,52.64
2018-06-16T08:48:59.129Z,53.96
2018-06-16T08:51:28.255Z,56.12
2018-06-16T08:53:57.231Z,55.86
2018-06-16T08:56:26.441Z,55.32
2018-06-16T08:58:55.597Z,55.54
2018-06-16T09:01:24.715Z,55.58
2018-06-16T09:03:53.904Z,55.75
2018-06-16T09:06:22.962Z,56.34
2018-06-16T09:08:52.078Z,55.96
2018-06-16T09:11:21.198Z,54.29
2018-06-16T09:13:50.265Z,54.15
2018-06-16T09:16:19.385Z,54.52
2018-06-16T09:18:48.514Z,55.07
2018-06-16T09:21:17.560Z,53.97
2018-06-16T09:23:46.758Z,51.54
2018-06-16T09:26:15.953Z,53.97
2018-06-16T09:28:45.052Z,54.20
2018-06-16T09:31:14.147Z,54.32
2018-06-16T09:33:43.852Z,53.98
2018-06-16T09:36:13.045Z,53.65
2018-06-16T09:38:42.918Z,54.13
2018-06-16T09:41:12.058Z,52.63
2018-06-16T09:43:41.253Z,52.25
2018-06-16T09:46:10.267Z,50.56
2018-06-16T09:48:39.423Z,53.71
2018-06-16T09:51:08.464Z,53.01
2018-06-16T09:53:37.542Z,53.34
2018-06-16T09:56:06.660Z,52.43
2018-06-16T09:58:36.587Z,49.92
2018-06-16T10:01:05.708Z,51.17
2018-06-16T10:03:34.834Z,50.60
2018-06-16T10:06:04.022Z,51.27
2018-06-16T10:08:33.172Z,51.20
2018-06-16T10:11:02.238Z,51.45
2018-06-16T10:13:31.365Z,51.59
2018-06-16T10:16:00.411Z,51.74
2018-06-16T10:18:29.559Z,51.67
2018-06-16T10:20:58.649Z,50.88
2018-06-16T10:23:27.651Z,50.39
2018-06-16T10:25:57.591Z,50.34
2018-06-16T10:28:26.731Z,50.64
2018-06-16T10:30:55.847Z,51.44
2018-06-16T10:33:24.937Z,51.78
2018-06-16T10:35:54.058Z,50.59
2018-06-16T10:38:23.112Z,52.17
2018-06-16T10:40:52.161Z,51.81
2018-06-16T10:43:21.308Z,50.47
2018-06-16T10:45:50.431Z,50.42
2018-06-16T10:48:19.407Z,50.92
2018-06-16T10:50:48.576Z,52.31
2018-06-16T10:53:17.784Z,51.47
2018-06-16T10:55:47.001Z,51.44
2018-06-16T10:58:16.176Z,51.77
2018-06-16T11:00:46.163Z,52.14
2018-06-16T11:03:15.318Z,51.80
2018-06-16T11:05:44.418Z,52.20
2018-06-16T11:08:13.562Z,52.11
2018-06-16T11:10:42.557Z,52.37
2018-06-16T11:13:11.862Z,51.24
2018-06-16T11:15:40.994Z,54.42
2018-06-16T11:18:10.168Z,63.38
2018-06-16T11:20:39.278Z,67.38
2018-06-16T11:23:08.464Z,69.46
2018-06-16T11:25:37.445Z,71.09
2018-06-16T11:28:06.880Z,72.15
2018-06-16T11:30:40.616Z,73.97
2018-06-16T11:33:10.975Z,74.34
2018-06-16T11:35:46.750Z,73.95
2018-06-16T11:38:15.891Z,76.57
2018-06-16T11:40:46.060Z,75.63
2018-06-16T11:43:15.314Z,75.20
2018-06-16T11:45:44.481Z,73.93
2018-06-16T11:48:17.822Z,74.07
2018-06-16T11:50:46.819Z,73.25
2018-06-16T11:53:16.113Z,74.45
2018-06-16T11:55:45.288Z,74.34
2018-06-16T11:58:15.647Z,74.17
2018-06-16T12:04:03.126Z,74.26
2018-06-16T12:06:49.259Z,74.72
2018-06-16T12:09:23.690Z,73.22
2018-06-16T12:11:53.048Z,71.45
2018-06-16T12:14:22.373Z,69.64
2018-06-16T12:16:51.952Z,70.38
2018-06-16T12:19:21.096Z,69.19
2018-06-16T12:21:50.129Z,68.58
2018-06-16T12:24:19.255Z,65.87
2018-06-16T12:26:48.407Z,65.08
2018-06-16T12:29:17.968Z,64.20
2018-06-16T12:31:47.142Z,63.65
2018-06-16T12:34:16.242Z,61.47
2018-06-16T12:36:48.141Z,61.65
2018-06-16T12:39:17.258Z,60.37
2018-06-16T12:41:46.366Z,63.62
2018-06-16T12:44:15.808Z,65.33
2018-06-16T12:46:45.221Z,67.54
2018-06-16T12:49:14.293Z,69.95
2018-06-16T12:54:36.054Z,74.12
2018-06-16T12:57:05.255Z,72.88
2018-06-16T12:59:34.436Z,73.95
2018-06-16T13:02:03.821Z,74.87
2018-06-16T13:04:36.220Z,74.97
2018-06-16T13:07:15.757Z,73.21
2018-06-16T13:09:46.613Z,73.52
2018-06-16T13:12:45.417Z,74.67
2018-06-16T13:16:04.648Z,72.73
2018-06-16T13:20:03.403Z,70.61
2018-06-16T13:22:32.640Z,69.22
2018-06-16T13:25:01.918Z,68.55
2018-06-16T13:27:31.189Z,66.84
2018-06-16T13:30:00.494Z,66.48
2018-06-16T13:32:29.787Z,66.07
2018-06-16T13:34:59.137Z,66.19
2018-06-16T13:37:28.333Z,65.20
2018-06-16T13:39:57.487Z,62.82
2018-06-16T13:42:26.826Z,62.71
2018-06-16T13:44:56.126Z,62.94
2018-06-16T13:47:25.292Z,61.85
2018-06-16T13:49:54.432Z,61.16
2018-06-16T13:52:23.535Z,61.61
2018-06-16T13:54:52.830Z,61.88
2018-06-16T13:57:21.984Z,62.53
2018-06-16T13:59:51.236Z,61.56
2018-06-16T14:02:24.326Z,60.70
2018-06-16T14:04:56.756Z,60.63
2018-06-16T14:07:26.115Z,59.92
2018-06-16T14:09:55.872Z,59.90
2018-06-16T14:12:27.392Z,61.02
2018-06-16T14:14:56.604Z,60.52
2018-06-16T14:17:25.803Z,59.22
2018-06-16T14:19:54.889Z,58.74
2018-06-16T14:22:23.914Z,57.41
2018-06-16T14:24:53.202Z,57.66
2018-06-16T14:27:22.587Z,57.33
2018-06-16T14:29:51.490Z,56.34
2018-06-16T14:32:20.788Z,56.44
2018-06-16T14:34:50.029Z,55.07
2018-06-16T14:37:18.961Z,55.06
2018-06-16T14:39:47.940Z,54.42
2018-06-16T14:42:17.079Z,54.42
2018-06-16T14:44:46.136Z,55.88
2018-06-16T14:47:15.248Z,57.59
2018-06-16T14:49:44.385Z,55.64
2018-06-16T14:52:13.436Z,55.84
2018-06-16T14:54:42.605Z,55.88
2018-06-16T14:57:11.549Z,55.03
2018-06-16T14:59:40.654Z,55.90
2018-06-16T15:02:09.722Z,56.36
2018-06-16T15:04:38.926Z,56.19
2018-06-16T15:07:07.961Z,55.35
2018-06-16T15:09:37.112Z,57.23
2018-06-16T15:12:06.308Z,58.21
2018-06-16T15:14:35.490Z,58.02
2018-06-16T15:17:04.504Z,57.11
2018-06-16T15:19:34.332Z,57.77
2018-06-16T15:22:03.435Z,57.88
2018-06-16T15:24:32.530Z,58.34
2018-06-16T15:27:02.599Z,60.00
2018-06-16T15:29:31.638Z,59.61
2018-06-16T15:32:00.777Z,61.30
2018-06-16T15:34:30.135Z,60.44
2018-06-16T15:36:59.089Z,60.37
2018-06-16T15:39:28.220Z,59.93
2018-06-16T15:41:57.387Z,59.69
2018-06-16T15:44:26.431Z,59.04
2018-06-16T15:46:55.826Z,59.81
2018-06-16T15:49:24.786Z,59.85
2018-06-16T15:51:53.868Z,60.58
2018-06-16T15:54:23.031Z,60.04
2018-06-16T15:56:52.041Z,60.02
2018-06-16T15:59:21.203Z,60.59
2018-06-16T16:01:50.239Z,60.35
2018-06-16T16:04:19.858Z,60.95
2018-06-16T16:06:48.775Z,59.69
2018-06-16T16:09:18.024Z,61.03
2018-06-16T16:11:47.295Z,61.02
2018-06-16T16:14:16.342Z,61.63
2018-06-16T16:16:45.417Z,60.69
2018-06-16T16:19:20.361Z,61.24
2018-06-16T16:21:49.256Z,61.29
2018-06-16T16:24:19.086Z,61.44
2018-06-16T16:26:48.503Z,60.79
2018-06-16T16:29:17.697Z,60.99
2018-06-16T16:31:46.643Z,60.32
2018-06-16T16:34:15.668Z,59.90
2018-06-16T16:36:44.591Z,60.33
2018-06-16T16:39:13.625Z,60.14
2018-06-16T16:41:43.013Z,58.64
2018-06-16T16:44:11.974Z,59.25
2018-06-16T16:46:40.992Z,59.55
2018-06-16T16:49:10.305Z,59.29
2018-06-16T16:51:39.207Z,60.42
2018-06-16T16:54:08.131Z,59.59
2018-06-16T16:56:37.545Z,60.52
2018-06-16T16:59:06.619Z,60.22
2018-06-16T17:01:35.519Z,59.55
2018-06-16T17:04:05.646Z,60.68
2018-06-16T17:06:34.577Z,61.20
2018-06-16T17:09:05.464Z,61.26
2018-06-16T17:11:34.412Z,61.00
2018-06-16T17:14:03.414Z,62.28
2018-06-16T17:16:32.423Z,61.35
2018-06-16T17:19:01.324Z,62.77
2018-06-16T17:21:30.345Z,63.08
2018-06-16T17:23:59.437Z,62.94
2018-06-16T17:26:28.325Z,63.68
2018-06-16T17:28:57.284Z,63.00
2018-06-16T17:31:26.639Z,63.62
2018-06-16T17:33:55.521Z,63.99
2018-06-16T17:36:24.503Z,64.17
2018-06-16T17:38:53.766Z,64.63
2018-06-16T17:41:22.709Z,64.47
2018-06-16T17:43:52.374Z,65.22
2018-06-16T17:46:21.671Z,66.93
2018-06-16T17:48:50.718Z,67.01
2018-06-16T17:51:19.707Z,68.12
2018-06-16T17:53:49.362Z,68.21
2018-06-16T17:56:18.365Z,69.10
2018-06-16T17:58:47.306Z,69.33
2018-06-16T18:02:19.090Z,69.38
2018-06-16T18:04:48.010Z,70.49
2018-06-16T18:07:17.016Z,71.18
2018-06-16T18:09:46.076Z,71.59
2018-06-16T18:12:15.044Z,71.50
2018-06-16T18:14:44.952Z,72.29
2018-06-16T18:17:14.471Z,72.66
2018-06-16T18:19:43.442Z,73.21
2018-06-16T18:22:12.335Z,74.10
2018-06-16T18:24:41.314Z,73.25
2018-06-16T18:27:10.173Z,74.03
2018-06-16T18:29:39.149Z,73.83
2018-06-16T18:32:08.635Z,74.04
2018-06-16T18:34:37.552Z,74.74
2018-06-16T18:37:06.437Z,74.57
2018-06-16T18:39:35.906Z,75.53
2018-06-16T18:42:04.896Z,75.52
2018-06-16T18:44:33.888Z,76.15
2018-06-16T18:47:02.891Z,77.04
2018-06-16T18:49:31.792Z,76.91
2018-06-16T18:52:00.748Z,77.87
2018-06-16T18:54:29.713Z,78.20
2018-06-16T18:56:59.729Z,78.44
2018-06-16T18:59:28.692Z,78.49
2018-06-16T19:01:58.120Z,78.92
2018-06-16T19:04:27.654Z,79.78
2018-06-16T19:06:56.595Z,80.33
2018-06-16T19:09:25.672Z,80.01
2018-06-16T19:11:54.665Z,80.21
2018-06-16T19:14:23.618Z,80.15
2018-06-16T19:16:53.093Z,80.53
2018-06-16T19:19:22.015Z,80.69
2018-06-16T19:21:51.017Z,80.68
2018-06-16T19:24:20.601Z,81.44
2018-06-16T19:26:49.577Z,80.92
2018-06-16T19:29:18.583Z,80.30
2018-06-16T19:31:47.589Z,80.27
2018-06-16T19:34:16.472Z,80.12
2018-06-16T19:36:45.401Z,78.96
2018-06-16T19:39:14.408Z,78.72
2018-06-16T19:41:43.293Z,79.06
2018-06-16T19:45:15.585Z,79.81
2018-06-16T19:47:44.568Z,80.16
2018-06-16T19:50:13.605Z,79.43
2018-06-16T19:52:42.724Z,80.59
2018-06-16T19:55:11.739Z,79.38
2018-06-16T19:57:40.779Z,78.44
2018-06-16T20:00:09.820Z,78.77
2018-06-16T20:02:38.792Z,78.96
2018-06-16T20:05:07.841Z,79.21
2018-06-16T20:07:37.011Z,80.07
2018-06-16T20:10:06.077Z,80.57
2018-06-16T20:12:35.073Z,80.74
2018-06-16T20:15:04.499Z,80.44
2018-06-16T20:17:33.464Z,79.81
2018-06-16T20:20:02.403Z,79.69
2018-06-16T20:22:31.959Z,79.15
2018-06-16T20:25:00.809Z,79.03
2018-06-16T20:27:29.795Z,79.40
2018-06-16T20:29:59.046Z,79.41
2018-06-16T20:32:28.121Z,79.75
2018-06-16T20:34:57.101Z,79.73
2018-06-16T20:37:26.505Z,78.94
2018-06-16T20:39:55.593Z,79.32
2018-06-16T20:42:24.618Z,79.62
2018-06-16T20:44:54.196Z,79.75
2018-06-16T20:47:23.569Z,80.59
2018-06-16T20:49:54.025Z,81.37
2018-06-16T20:52:22.987Z,81.17
2018-06-16T20:54:52.152Z,80.61
2018-06-16T20:57:21.270Z,81.49
2018-06-16T20:59:50.290Z,81.25
2018-06-16T21:02:19.320Z,82.33
2018-06-16T21:04:48.825Z,82.79
2018-06-16T21:07:17.771Z,84.92
2018-06-16T21:09:47.055Z,85.41
2018-06-16T21:12:16.190Z,86.22
2018-06-16T21:14:45.329Z,86.71
2018-06-16T21:17:14.282Z,87.36
2018-06-16T21:19:43.289Z,88.02
2018-06-16T21:22:12.347Z,87.83
2018-06-16T21:24:41.753Z,89.19
2018-06-16T21:30:15.299Z,90.43
2018-06-16T21:32:45.025Z,90.44
2018-06-16T21:35:14.098Z,90.09
2018-06-16T21:37:43.384Z,90.29
2018-06-16T21:40:12.635Z,90.03
2018-06-16T21:42:44.353Z,90.04
2018-06-16T21:45:14.764Z,88.35
2018-06-16T21:47:46.601Z,88.35
2018-06-16T21:50:22.344Z,88.45
2018-06-16T21:52:53.229Z,87.24
2018-06-16T21:55:24.361Z,87.15
2018-06-16T21:57:55.187Z,87.36
2018-06-16T22:00:35.772Z,87.28
2018-06-16T22:03:18.325Z,87.35
2018-06-16T22:05:50.190Z,88.06
2018-06-16T22:08:25.729Z,88.27
2018-06-16T22:10:58.478Z,88.55
2018-06-16T22:13:29.649Z,88.70
2018-06-16T22:15:58.993Z,88.93
2018-06-16T22:18:32.523Z,88.72
2018-06-16T22:21:01.937Z,88.89
2018-06-16T22:23:31.353Z,88.77
2018-06-16T22:26:42.774Z,89.14
2018-06-16T22:29:12.214Z,89.03
2018-06-16T22:31:41.809Z,89.18
2018-06-16T22:34:11.773Z,89.57
2018-06-16T22:36:41.123Z,90.12
2018-06-16T22:39:22.011Z,89.98
2018-06-16T22:48:31.403Z,90.19
2018-06-16T22:51:08.110Z,90.57
2018-06-16T22:54:18.094Z,91.03
2018-06-16T22:56:47.259Z,91.54
2018-06-16T22:59:16.413Z,91.69
2018-06-16T23:01:46.481Z,92.07
2018-06-16T23:04:17.170Z,92.52
2018-06-16T23:06:46.404Z,92.88
2018-06-16T23:09:15.606Z,91.81
2018-06-16T23:11:44.862Z,92.11
2018-06-16T23:14:14.404Z,90.75
2018-06-16T23:16:43.923Z,90.43
2018-06-16T23:19:13.192Z,89.11
2018-06-16T23:21:42.421Z,88.60
2018-06-16T23:24:15.382Z,87.98
2018-06-16T23:26:44.705Z,87.62
2018-06-16T23:29:14.039Z,86.92
2018-06-16T23:31:43.602Z,86.79
2018-06-16T23:34:13.926Z,87.11
2018-06-16T23:36:43.312Z,86.28
2018-06-16T23:39:13.772Z,86.84
2018-06-16T23:41:44.091Z,86.83
2018-06-16T23:49:17.260Z,85.82
2018-06-16T23:51:47.833Z,86.28
2018-06-16T23:54:27.196Z,86.26
2018-06-16T23:57:03.284Z,86.61
2018-06-16T23:59:32.512Z,86.02
